createdAt,value
2023-02-07T00:00:17.299Z,6.80
2023-02-07T00:02:18.919Z,6.84
2023-02-07T00:04:20.537Z,6.84
2023-02-07T00:06:27.912Z,6.83
2023-02-07T00:08:29.438Z,6.84
2023-02-07T00:10:32.773Z,6.83
2023-02-07T00:12:34.644Z,6.84
2023-02-07T00:14:37.486Z,6.86
2023-02-07T00:16:39.559Z,6.81
2023-02-07T00:18:41.261Z,6.79
2023-02-07T00:20:42.754Z,6.77
2023-02-07T00:22:44.451Z,6.76
2023-02-07T00:24:45.975Z,6.73
2023-02-07T00:26:47.530Z,6.75
2023-02-07T00:28:49.725Z,6.75
2023-02-07T00:31:02.892Z,6.69
2023-02-07T00:33:04.674Z,6.70
2023-02-07T00:35:07.523Z,6.64
2023-02-07T00:37:09.061Z,6.67
2023-02-07T00:39:13.713Z,6.61
2023-02-07T00:41:16.240Z,6.58
2023-02-07T00:43:29.110Z,6.56
2023-02-07T00:45:31.306Z,6.47
2023-02-07T00:47:34.200Z,6.50
2023-02-07T00:49:35.791Z,6.52
2023-02-07T00:51:37.335Z,6.25
2023-02-07T00:53:39.500Z,6.36
2023-02-07T00:55:41.085Z,6.37
2023-02-07T00:57:42.599Z,6.43
2023-02-07T00:59:44.166Z,6.51
2023-02-07T01:01:45.889Z,6.56
2023-02-07T01:03:48.933Z,6.58
2023-02-07T01:05:50.439Z,6.60
2023-02-07T01:07:51.977Z,6.60
2023-02-07T01:09:53.508Z,6.60
2023-02-07T01:11:54.998Z,6.61
2023-02-07T01:13:58.653Z,6.54
2023-02-07T01:16:00.393Z,6.48
2023-02-07T01:18:02.036Z,6.45
2023-02-07T01:20:05.863Z,6.39
2023-02-07T01:22:07.347Z,6.37
2023-02-07T01:24:09.401Z,6.33
2023-02-07T01:26:15.506Z,6.30
2023-02-07T01:28:17.195Z,6.35
2023-02-07T01:30:19.115Z,6.37
2023-02-07T01:32:20.671Z,6.41
2023-02-07T01:34:22.248Z,6.43
2023-02-07T01:36:26.826Z,6.45
2023-02-07T01:38:28.395Z,6.47
2023-02-07T01:40:30.991Z,6.47
2023-02-07T01:42:32.853Z,6.49
2023-02-07T01:45:00.007Z,6.51
2023-02-07T01:47:02.230Z,6.48
2023-02-07T01:49:07.785Z,6.49
2023-02-07T01:51:09.366Z,6.46
2023-02-07T01:53:14.227Z,6.36
2023-02-07T01:55:22.552Z,6.37
2023-02-07T01:57:24.772Z,6.33
2023-02-07T01:59:27.564Z,6.38
2023-02-07T02:01:29.487Z,6.41
2023-02-07T02:03:32.248Z,6.29
2023-02-07T02:05:35.590Z,6.27
2023-02-07T02:07:39.079Z,6.29
2023-02-07T02:09:42.126Z,6.23
2023-02-07T02:12:00.950Z,6.14
2023-02-07T02:14:12.352Z,6.18
2023-02-07T02:16:23.171Z,6.08
2023-02-07T02:18:42.589Z,6.04
2023-02-07T02:21:32.646Z,5.92
2023-02-07T02:23:46.336Z,5.77
2023-02-07T02:26:20.131Z,5.79
2023-02-07T02:28:41.014Z,5.48
2023-02-07T02:31:41.303Z,5.48
2023-02-07T02:33:53.528Z,5.43
2023-02-07T02:36:05.856Z,5.41
2023-02-07T02:38:15.559Z,5.48
2023-02-07T02:40:25.244Z,5.49
2023-02-07T02:42:33.155Z,5.54
2023-02-07T02:44:39.983Z,5.60
2023-02-07T02:46:42.630Z,5.64
2023-02-07T02:48:45.719Z,5.71
2023-02-07T02:50:49.218Z,5.75
2023-02-07T02:52:53.477Z,5.70
2023-02-07T02:54:54.974Z,5.72
2023-02-07T02:57:28.573Z,5.72
2023-02-07T02:59:47.269Z,5.75
2023-02-07T03:01:58.569Z,5.80
2023-02-07T03:04:13.614Z,5.83
2023-02-07T03:06:27.092Z,5.87
2023-02-07T03:08:39.270Z,5.89
2023-02-07T03:10:50.469Z,5.84
2023-02-07T03:12:57.817Z,5.86
2023-02-07T03:15:03.855Z,5.86
2023-02-07T03:17:17.348Z,5.82
2023-02-07T03:19:25.320Z,5.84
2023-02-07T03:21:30.763Z,5.80
2023-02-07T03:23:33.269Z,5.80
2023-02-07T03:25:37.758Z,5.76
2023-02-07T03:27:40.264Z,5.78
2023-02-07T03:29:45.550Z,5.80
2023-02-07T03:31:51.540Z,5.72
2023-02-07T03:34:03.510Z,5.69
2023-02-07T03:36:10.829Z,5.67
2023-02-07T03:38:13.569Z,5.68
2023-02-07T03:40:16.031Z,5.70
2023-02-07T03:42:26.295Z,5.66
2023-02-07T03:44:30.721Z,5.69
2023-02-07T03:46:35.481Z,5.62
2023-02-07T03:48:37.026Z,5.64
2023-02-07T03:50:38.802Z,5.65
2023-02-07T03:52:46.970Z,5.64
2023-02-07T03:54:48.517Z,5.67
2023-02-07T03:56:50.069Z,5.71
2023-02-07T03:58:51.735Z,5.67
2023-02-07T04:00:53.278Z,5.67
2023-02-07T04:02:54.851Z,5.64
2023-02-07T04:04:56.357Z,5.65
2023-02-07T04:06:57.860Z,5.61
2023-02-07T04:09:00.758Z,5.62
2023-02-07T04:11:04.353Z,5.64
2023-02-07T04:13:06.005Z,5.58
2023-02-07T04:15:09.002Z,5.56
2023-02-07T04:17:10.648Z,5.50
2023-02-07T04:19:12.242Z,5.47
2023-02-07T04:21:13.958Z,5.49
2023-02-07T04:23:15.573Z,5.52
2023-02-07T04:25:18.561Z,5.53
2023-02-07T04:27:20.103Z,5.45
2023-02-07T04:29:21.601Z,5.47
2023-02-07T04:31:23.358Z,5.50
2023-02-07T04:33:24.976Z,5.47
2023-02-07T04:35:26.493Z,5.43
2023-02-07T04:37:28.021Z,5.44
2023-02-07T04:39:35.841Z,5.44
2023-02-07T04:41:38.800Z,5.30
2023-02-07T04:43:40.381Z,5.17
2023-02-07T04:45:42.248Z,5.30
2023-02-07T04:47:43.834Z,5.31
2023-02-07T04:49:45.404Z,5.26
2023-02-07T04:51:46.911Z,5.20
2023-02-07T04:53:48.437Z,5.18
2023-02-07T04:55:51.171Z,5.18
2023-02-07T04:57:59.569Z,5.21
2023-02-07T05:00:01.466Z,5.21
2023-02-07T05:02:03.161Z,5.22
2023-02-07T05:04:04.853Z,5.22
2023-02-07T05:06:06.603Z,5.21
2023-02-07T05:08:08.685Z,5.17
2023-02-07T05:10:10.287Z,5.13
2023-02-07T05:12:11.907Z,4.99
2023-02-07T05:14:14.858Z,4.93
2023-02-07T05:16:16.554Z,5.02
2023-02-07T05:18:18.294Z,5.03
2023-02-07T05:20:20.275Z,5.08
2023-02-07T05:22:22.017Z,5.09
2023-02-07T05:24:23.568Z,5.08
2023-02-07T05:26:25.202Z,5.14
2023-02-07T05:28:26.762Z,5.16
2023-02-07T05:30:29.912Z,5.16
2023-02-07T05:32:31.724Z,5.15
2023-02-07T05:34:36.710Z,5.14
2023-02-07T05:36:38.530Z,5.16
2023-02-07T05:38:40.124Z,5.15
2023-02-07T05:40:42.622Z,5.18
2023-02-07T05:42:44.244Z,5.14
2023-02-07T05:44:48.036Z,5.13
2023-02-07T05:46:52.654Z,5.09
2023-02-07T05:48:54.272Z,5.05
2023-02-07T05:50:55.810Z,4.97
2023-02-07T05:52:57.388Z,4.99
2023-02-07T05:54:58.923Z,5.00
2023-02-07T05:57:00.791Z,5.01
2023-02-07T05:59:02.364Z,4.96
2023-02-07T06:01:06.444Z,4.98
2023-02-07T06:03:09.348Z,4.98
2023-02-07T06:05:14.743Z,4.93
2023-02-07T06:07:18.717Z,4.94
2023-02-07T06:09:20.796Z,4.93
2023-02-07T06:11:22.397Z,4.82
2023-02-07T06:13:23.943Z,4.78
2023-02-07T06:15:25.461Z,4.83
2023-02-07T06:17:27.155Z,4.81
2023-02-07T06:19:30.078Z,4.84
2023-02-07T06:21:45.400Z,4.86
2023-02-07T06:23:47.958Z,4.87
2023-02-07T06:25:49.539Z,4.90
2023-02-07T06:27:51.328Z,4.90
2023-02-07T06:29:53.179Z,4.93
2023-02-07T06:31:54.886Z,4.90
2023-02-07T06:33:56.580Z,4.82
2023-02-07T06:35:59.600Z,4.79
2023-02-07T06:38:01.205Z,4.82
2023-02-07T06:40:03.506Z,4.84
2023-02-07T06:42:05.101Z,4.75
2023-02-07T06:44:06.778Z,4.69
2023-02-07T06:46:08.420Z,4.70
2023-02-07T06:48:10.468Z,4.72
2023-02-07T06:50:12.123Z,4.68
2023-02-07T06:52:15.541Z,4.67
2023-02-07T06:54:17.168Z,4.72
2023-02-07T06:56:21.364Z,4.71
2023-02-07T06:58:23.117Z,4.71
2023-02-07T07:00:25.262Z,4.78
2023-02-07T07:02:26.914Z,4.63
2023-02-07T07:04:28.473Z,4.58
2023-02-07T07:06:30.231Z,4.36
2023-02-07T07:08:33.260Z,4.19
2023-02-07T07:10:34.906Z,4.24
2023-02-07T07:12:36.467Z,4.29
2023-02-07T07:14:37.963Z,4.23
2023-02-07T07:16:40.051Z,4.12
2023-02-07T07:18:42.213Z,4.16
2023-02-07T07:20:43.878Z,4.10
2023-02-07T07:22:45.442Z,4.11
2023-02-07T07:24:48.421Z,3.98
2023-02-07T07:26:50.320Z,3.95
2023-02-07T07:28:51.854Z,3.92
2023-02-07T07:30:53.524Z,3.88
2023-02-07T07:32:55.520Z,3.79
2023-02-07T07:34:57.057Z,3.66
2023-02-07T07:36:58.592Z,3.77
2023-02-07T07:39:00.242Z,3.74
2023-02-07T07:41:03.196Z,3.78
2023-02-07T07:43:04.760Z,3.81
2023-02-07T07:45:06.980Z,3.72
2023-02-07T07:47:08.614Z,3.77
2023-02-07T07:49:10.325Z,3.52
2023-02-07T07:51:11.843Z,3.37
2023-02-07T07:53:13.472Z,3.42
2023-02-07T07:55:15.202Z,3.48
2023-02-07T07:57:20.355Z,3.56
2023-02-07T07:59:24.282Z,3.52
2023-02-07T08:01:25.907Z,3.66
2023-02-07T08:03:27.542Z,3.85
2023-02-07T08:05:29.062Z,3.93
2023-02-07T08:07:30.729Z,4.05
2023-02-07T08:09:32.670Z,4.13
2023-02-07T08:11:34.313Z,4.28
2023-02-07T08:13:37.695Z,4.37
2023-02-07T08:15:39.241Z,4.49
2023-02-07T08:17:41.109Z,4.88
2023-02-07T08:19:42.760Z,5.19
2023-02-07T08:21:44.906Z,5.47
2023-02-07T08:23:46.749Z,5.74
2023-02-07T08:25:48.664Z,5.96
2023-02-07T08:27:50.267Z,5.98
2023-02-07T08:29:53.353Z,5.81
2023-02-07T08:31:55.004Z,5.80
2023-02-07T08:33:56.630Z,5.95
2023-02-07T08:35:58.708Z,6.08
2023-02-07T08:38:00.434Z,5.86
2023-02-07T08:40:02.051Z,5.46
2023-02-07T08:42:04.004Z,5.39
2023-02-07T08:44:05.844Z,5.47
2023-02-07T08:46:08.974Z,5.41
2023-02-07T08:48:10.650Z,5.28
2023-02-07T08:50:13.537Z,5.36
2023-02-07T08:52:15.177Z,5.25
2023-02-07T08:54:16.751Z,5.19
2023-02-07T08:56:18.344Z,5.17
2023-02-07T08:58:19.905Z,5.26
2023-02-07T09:00:21.629Z,5.38
2023-02-07T09:02:24.726Z,5.55
2023-02-07T09:04:26.367Z,5.67
2023-02-07T09:06:28.198Z,5.76
2023-02-07T09:08:29.775Z,5.81
2023-02-07T09:10:31.789Z,5.93
2023-02-07T09:12:34.309Z,6.00
2023-02-07T09:14:35.966Z,6.15
2023-02-07T09:16:37.574Z,6.20
2023-02-07T09:18:43.521Z,6.44
2023-02-07T09:20:45.153Z,6.51
2023-02-07T09:22:46.843Z,6.52
2023-02-07T09:24:48.598Z,6.61
2023-02-07T09:26:50.239Z,6.87
2023-02-07T09:28:52.435Z,6.88
2023-02-07T09:30:54.370Z,6.81
2023-02-07T09:32:57.282Z,6.77
2023-02-07T09:35:00.387Z,6.62
2023-02-07T09:37:01.978Z,6.83
2023-02-07T09:39:04.651Z,6.88
2023-02-07T09:41:18.941Z,6.77
2023-02-07T09:43:37.941Z,6.79
2023-02-07T09:45:45.383Z,6.91
2023-02-07T09:47:52.696Z,6.90
2023-02-07T09:49:57.137Z,6.66
2023-02-07T09:52:02.169Z,6.64
2023-02-07T09:54:07.632Z,6.52
2023-02-07T09:56:10.923Z,6.73
2023-02-07T09:58:18.563Z,6.68
2023-02-07T10:00:23.017Z,6.78
2023-02-07T10:02:30.993Z,6.98
2023-02-07T10:04:36.759Z,7.11
2023-02-07T10:06:41.000Z,7.39
2023-02-07T10:08:44.970Z,7.24
2023-02-07T10:10:52.965Z,7.44
2023-02-07T10:13:21.506Z,7.94
2023-02-07T10:15:41.493Z,8.18
2023-02-07T10:17:57.749Z,8.49
2023-02-07T10:20:13.305Z,8.84
2023-02-07T10:22:26.131Z,9.20
2023-02-07T10:24:54.569Z,9.34
2023-02-07T10:27:04.762Z,9.65
2023-02-07T10:29:25.553Z,9.57
2023-02-07T10:31:28.970Z,9.85
2023-02-07T10:33:33.380Z,9.92
2023-02-07T10:35:36.572Z,10.57
2023-02-07T10:37:38.778Z,10.48
2023-02-07T10:39:48.592Z,10.11
2023-02-07T10:41:50.151Z,9.82
2023-02-07T10:43:52.093Z,9.85
2023-02-07T10:46:04.601Z,9.97
2023-02-07T10:48:14.529Z,9.69
2023-02-07T10:50:29.432Z,9.45
2023-02-07T10:52:36.633Z,9.61
2023-02-07T10:54:50.928Z,10.28
2023-02-07T10:56:57.780Z,10.88
2023-02-07T10:59:03.557Z,11.15
2023-02-07T11:01:05.632Z,11.50
2023-02-07T11:03:13.169Z,11.95
2023-02-07T11:05:40.090Z,12.00
2023-02-07T11:07:47.665Z,12.42
2023-02-07T11:09:50.938Z,12.78
2023-02-07T11:11:54.601Z,13.39
2023-02-07T11:14:03.096Z,13.91
2023-02-07T11:16:07.453Z,14.00
2023-02-07T11:18:28.673Z,13.94
2023-02-07T11:20:33.781Z,14.37
2023-02-07T11:22:36.742Z,14.67
2023-02-07T11:24:38.412Z,14.89
2023-02-07T11:26:53.380Z,15.43
2023-02-07T11:29:05.722Z,15.91
2023-02-07T11:31:13.659Z,16.13
2023-02-07T11:33:18.839Z,16.15
2023-02-07T11:35:21.258Z,16.54
2023-02-07T11:37:26.564Z,16.87
2023-02-07T11:39:28.273Z,17.10
2023-02-07T11:41:33.596Z,17.36
2023-02-07T11:43:36.506Z,17.57
2023-02-07T11:45:40.747Z,17.80
2023-02-07T11:47:45.146Z,17.87
2023-02-07T11:49:50.607Z,18.00
2023-02-07T11:51:52.612Z,18.15
2023-02-07T11:53:56.696Z,18.19
2023-02-07T11:55:58.355Z,18.23
2023-02-07T11:58:09.437Z,18.30
2023-02-07T12:00:21.689Z,18.30
2023-02-07T12:02:25.428Z,18.39
2023-02-07T12:04:30.354Z,18.45
2023-02-07T12:06:38.058Z,18.39
2023-02-07T12:08:41.923Z,18.33
2023-02-07T12:10:48.136Z,18.47
2023-02-07T12:12:54.081Z,18.60
2023-02-07T12:15:00.186Z,18.49
2023-02-07T12:17:13.374Z,18.53
2023-02-07T12:19:21.873Z,18.34
2023-02-07T12:21:27.121Z,18.28
2023-02-07T12:23:43.048Z,18.19
2023-02-07T12:25:50.007Z,18.18
2023-02-07T12:27:55.945Z,18.13
2023-02-07T12:30:03.448Z,17.95
2023-02-07T12:32:13.944Z,17.88
2023-02-07T12:34:22.864Z,17.80
2023-02-07T12:36:29.241Z,17.57
2023-02-07T12:38:38.186Z,17.61
2023-02-07T12:40:45.278Z,17.45
2023-02-07T12:42:52.205Z,17.43
2023-02-07T12:44:57.431Z,17.33
2023-02-07T12:47:06.045Z,17.19
2023-02-07T12:49:36.982Z,17.13
2023-02-07T12:51:45.568Z,16.94
2023-02-07T12:54:11.694Z,16.85
2023-02-07T12:56:35.406Z,16.84
2023-02-07T12:58:48.447Z,16.80
2023-02-07T13:00:57.817Z,16.78
2023-02-07T13:03:16.550Z,16.81
2023-02-07T13:05:53.829Z,16.66
2023-02-07T13:08:07.656Z,16.53
2023-02-07T13:10:20.824Z,16.44
2023-02-07T13:12:29.480Z,16.31
2023-02-07T13:14:41.351Z,16.14
2023-02-07T13:16:52.057Z,16.08
2023-02-07T13:19:02.773Z,15.94
2023-02-07T13:21:17.614Z,15.72
2023-02-07T13:23:22.759Z,15.54
2023-02-07T13:25:27.900Z,15.18
2023-02-07T13:27:30.523Z,14.93
2023-02-07T13:29:35.299Z,14.67
2023-02-07T13:31:40.589Z,14.49
2023-02-07T13:33:43.447Z,14.33
2023-02-07T13:35:47.118Z,14.21
2023-02-07T13:37:56.882Z,14.10
2023-02-07T13:40:05.845Z,14.01
2023-02-07T13:42:17.504Z,13.85
2023-02-07T13:44:26.479Z,13.79
2023-02-07T13:47:03.262Z,13.83
2023-02-07T13:49:14.744Z,13.78
2023-02-07T13:51:24.577Z,13.62
2023-02-07T13:53:39.307Z,13.55
2023-02-07T13:55:43.762Z,13.52
2023-02-07T13:57:45.357Z,13.48
2023-02-07T14:00:16.740Z,13.37
2023-02-07T14:02:20.930Z,13.25
2023-02-07T14:04:23.359Z,13.17
2023-02-07T14:06:27.171Z,13.07
2023-02-07T14:08:28.889Z,13.06
2023-02-07T14:10:40.365Z,13.05
2023-02-07T14:12:49.371Z,13.00
2023-02-07T14:15:02.145Z,13.02
2023-02-07T14:17:06.908Z,13.02
2023-02-07T14:19:12.522Z,13.01
2023-02-07T14:21:39.072Z,13.00
2023-02-07T14:23:58.631Z,13.05
2023-02-07T14:26:00.215Z,13.00
2023-02-07T14:28:34.238Z,13.00
2023-02-07T14:30:37.701Z,12.91
2023-02-07T14:32:42.761Z,12.85
2023-02-07T14:35:00.344Z,12.80
2023-02-07T14:37:19.920Z,12.76
2023-02-07T14:39:28.174Z,12.74
2023-02-07T14:41:32.681Z,12.74
2023-02-07T14:43:59.699Z,12.73
2023-02-07T14:46:10.260Z,12.64
2023-02-07T14:48:32.293Z,12.59
2023-02-07T14:50:35.214Z,12.59
2023-02-07T14:52:38.955Z,12.62
2023-02-07T14:54:43.739Z,12.62
2023-02-07T14:56:52.711Z,12.60
2023-02-07T14:58:58.355Z,12.47
2023-02-07T15:00:59.916Z,12.34
2023-02-07T15:03:03.441Z,12.32
2023-02-07T15:05:21.376Z,12.37
2023-02-07T15:07:23.036Z,12.37
2023-02-07T15:09:26.882Z,12.21
2023-02-07T15:11:29.887Z,12.08
2023-02-07T15:13:35.205Z,12.06
2023-02-07T15:15:50.857Z,12.02
2023-02-07T15:17:55.233Z,11.99
2023-02-07T15:19:59.721Z,11.93
2023-02-07T15:22:02.188Z,11.88
2023-02-07T15:24:06.288Z,11.85
2023-02-07T15:26:08.592Z,11.80
2023-02-07T15:28:26.787Z,11.75
2023-02-07T15:30:30.853Z,11.73
2023-02-07T15:32:41.320Z,11.72
2023-02-07T15:34:45.148Z,11.76
2023-02-07T15:36:48.952Z,11.75
2023-02-07T15:38:50.742Z,11.79
2023-02-07T15:40:54.404Z,11.77
2023-02-07T15:42:57.625Z,11.68
2023-02-07T15:44:59.243Z,11.68
2023-02-07T15:47:02.177Z,11.72
2023-02-07T15:49:08.147Z,11.69
2023-02-07T15:51:11.585Z,11.64
2023-02-07T15:53:21.118Z,11.61
2023-02-07T15:55:29.542Z,11.57
2023-02-07T15:57:42.699Z,11.54
2023-02-07T15:59:44.434Z,11.45
2023-02-07T16:01:52.873Z,11.42
2023-02-07T16:03:56.168Z,11.33
2023-02-07T16:06:07.213Z,11.24
2023-02-07T16:08:29.073Z,11.17
2023-02-07T16:10:36.665Z,11.09
2023-02-07T16:12:51.000Z,11.13
2023-02-07T16:14:52.705Z,11.13
2023-02-07T16:16:56.599Z,11.08
2023-02-07T16:19:06.375Z,10.98
2023-02-07T16:21:13.153Z,10.95
2023-02-07T16:23:14.790Z,10.83
2023-02-07T16:25:19.071Z,10.73
2023-02-07T16:27:22.571Z,10.71
2023-02-07T16:29:25.400Z,10.73
2023-02-07T16:31:27.257Z,10.62
2023-02-07T16:33:28.850Z,10.60
2023-02-07T16:35:30.333Z,10.60
2023-02-07T16:37:34.410Z,10.39
2023-02-07T16:39:36.106Z,10.40
2023-02-07T16:41:40.462Z,10.45
2023-02-07T16:43:42.047Z,10.37
2023-02-07T16:45:43.744Z,10.37
2023-02-07T16:47:45.864Z,10.37
2023-02-07T16:49:47.531Z,10.30
2023-02-07T16:51:49.408Z,10.33
2023-02-07T16:53:52.344Z,10.28
2023-02-07T16:55:56.279Z,10.29
2023-02-07T16:57:58.142Z,10.22
2023-02-07T16:59:59.706Z,10.13
2023-02-07T17:02:01.429Z,10.09
2023-02-07T17:04:03.004Z,10.12
2023-02-07T17:06:05.886Z,10.19
2023-02-07T17:08:09.890Z,10.05
2023-02-07T17:10:22.216Z,9.95
2023-02-07T17:12:23.835Z,9.94
2023-02-07T17:14:25.448Z,9.85
2023-02-07T17:16:27.884Z,9.74
2023-02-07T17:18:29.451Z,9.71
2023-02-07T17:20:32.631Z,9.67
2023-02-07T17:22:34.188Z,9.67
2023-02-07T17:24:35.778Z,9.62
2023-02-07T17:26:40.149Z,9.64
2023-02-07T17:28:41.771Z,9.45
2023-02-07T17:30:43.851Z,9.44
2023-02-07T17:32:45.650Z,9.42
2023-02-07T17:34:47.199Z,9.30
2023-02-07T17:36:50.051Z,9.19
2023-02-07T17:38:51.805Z,9.22
2023-02-07T17:40:53.376Z,9.19
2023-02-07T17:42:56.583Z,9.07
2023-02-07T17:44:58.205Z,8.85
2023-02-07T17:46:59.737Z,8.72
2023-02-07T17:49:01.557Z,8.67
2023-02-07T17:51:03.351Z,8.54
2023-02-07T17:53:04.910Z,8.46
2023-02-07T17:55:07.137Z,8.50
2023-02-07T17:57:10.487Z,8.51
2023-02-07T17:59:22.793Z,8.36
2023-02-07T18:01:24.679Z,8.12
2023-02-07T18:03:26.300Z,8.09
2023-02-07T18:05:27.897Z,8.00
2023-02-07T18:07:29.473Z,7.86
2023-02-07T18:09:31.069Z,7.80
2023-02-07T18:11:32.720Z,7.94
2023-02-07T18:13:34.589Z,8.06
2023-02-07T18:15:37.579Z,8.05
2023-02-07T18:17:40.007Z,8.00
2023-02-07T18:19:41.617Z,8.01
2023-02-07T18:21:43.336Z,7.99
2023-02-07T18:23:45.376Z,7.92
2023-02-07T18:25:48.225Z,7.92
2023-02-07T18:27:50.312Z,7.81
2023-02-07T18:29:54.334Z,7.84
2023-02-07T18:31:57.448Z,7.79
2023-02-07T18:33:59.120Z,7.78
2023-02-07T18:36:00.816Z,7.79
2023-02-07T18:38:02.877Z,7.79
2023-02-07T18:40:05.511Z,7.89
2023-02-07T18:42:07.086Z,7.95
2023-02-07T18:44:08.750Z,7.95
2023-02-07T18:46:11.561Z,8.01
2023-02-07T18:48:16.607Z,8.02
2023-02-07T18:50:18.873Z,8.04
2023-02-07T18:52:20.537Z,7.99
2023-02-07T18:54:22.121Z,7.94
2023-02-07T18:56:25.258Z,8.00
2023-02-07T18:58:26.884Z,8.05
2023-02-07T19:00:28.475Z,8.05
2023-02-07T19:02:30.315Z,8.04
2023-02-07T19:04:33.498Z,8.03
2023-02-07T19:06:35.072Z,8.00
2023-02-07T19:08:37.012Z,7.98
2023-02-07T19:10:38.869Z,7.95
2023-02-07T19:12:40.603Z,7.81
2023-02-07T19:14:42.220Z,7.76
2023-02-07T19:16:45.660Z,7.76
2023-02-07T19:18:47.874Z,7.72
2023-02-07T19:20:50.785Z,7.72
2023-02-07T19:22:52.404Z,7.73
2023-02-07T19:24:54.233Z,7.74
2023-02-07T19:26:57.514Z,7.74
2023-02-07T19:28:59.890Z,7.72
2023-02-07T19:31:02.994Z,7.78
2023-02-07T19:33:04.681Z,7.79
2023-02-07T19:35:07.170Z,7.79
2023-02-07T19:37:10.095Z,7.75
2023-02-07T19:39:11.668Z,7.75
2023-02-07T19:41:13.854Z,7.70
2023-02-07T19:43:15.501Z,7.72
2023-02-07T19:45:17.212Z,7.64
2023-02-07T19:47:18.867Z,7.65
2023-02-07T19:49:20.523Z,7.72
2023-02-07T19:51:24.643Z,7.71
2023-02-07T19:53:29.016Z,7.71
2023-02-07T19:55:30.635Z,7.66
2023-02-07T19:57:32.340Z,7.62
2023-02-07T19:59:33.931Z,7.56
2023-02-07T20:01:36.414Z,7.68
2023-02-07T20:03:38.568Z,7.66
2023-02-07T20:05:45.389Z,7.61
2023-02-07T20:07:47.012Z,7.56
2023-02-07T20:09:50.170Z,7.55
2023-02-07T20:11:51.813Z,7.59
2023-02-07T20:13:55.386Z,7.57
2023-02-07T20:15:57.114Z,7.52
2023-02-07T20:17:58.747Z,7.49
2023-02-07T20:20:00.478Z,7.45
2023-02-07T20:22:02.080Z,7.46
2023-02-07T20:24:04.743Z,7.35
2023-02-07T20:26:09.770Z,7.15
2023-02-07T20:28:11.390Z,7.18
2023-02-07T20:30:13.410Z,7.13
2023-02-07T20:32:14.978Z,7.17
2023-02-07T20:34:16.911Z,7.23
2023-02-07T20:36:19.929Z,7.24
2023-02-07T20:38:21.450Z,7.29
2023-02-07T20:40:23.006Z,7.30
2023-02-07T20:42:26.004Z,7.26
2023-02-07T20:44:30.512Z,7.18
2023-02-07T20:46:33.919Z,7.10
2023-02-07T20:48:35.508Z,7.05
2023-02-07T20:50:37.112Z,7.02
2023-02-07T20:52:38.708Z,7.04
2023-02-07T20:54:40.357Z,6.90
2023-02-07T20:56:42.152Z,6.85
2023-02-07T20:58:46.289Z,6.85
2023-02-07T21:00:47.842Z,6.89
2023-02-07T21:02:49.446Z,6.90
2023-02-07T21:04:51.059Z,6.89
2023-02-07T21:06:52.831Z,6.85
2023-02-07T21:08:57.386Z,6.77
2023-02-07T21:10:59.547Z,6.82
2023-02-07T21:13:01.146Z,6.81
2023-02-07T21:15:04.722Z,6.83
2023-02-07T21:17:07.020Z,6.86
2023-02-07T21:19:08.731Z,6.88
2023-02-07T21:21:10.344Z,6.80
2023-02-07T21:23:11.976Z,6.78
2023-02-07T21:25:13.583Z,6.77
2023-02-07T21:27:17.027Z,6.78
2023-02-07T21:29:19.427Z,6.76
2023-02-07T21:31:22.661Z,6.77
2023-02-07T21:33:24.232Z,6.73
2023-02-07T21:35:25.831Z,6.76
2023-02-07T21:37:27.558Z,6.66
2023-02-07T21:39:29.122Z,6.54
2023-02-07T21:41:31.214Z,6.58
2023-02-07T21:43:32.842Z,6.35
2023-02-07T21:45:34.419Z,6.13
2023-02-07T21:47:37.421Z,6.23
2023-02-07T21:49:39.082Z,6.23
2023-02-07T21:51:44.039Z,6.25
2023-02-07T21:53:46.365Z,6.25
2023-02-07T21:55:47.888Z,6.33
2023-02-07T21:57:49.454Z,6.35
2023-02-07T21:59:51.040Z,6.19
2023-02-07T22:01:52.750Z,6.28
2023-02-07T22:03:58.509Z,6.40
2023-02-07T22:06:00.053Z,6.21
2023-02-07T22:08:01.668Z,6.18
2023-02-07T22:10:03.815Z,5.92
2023-02-07T22:12:05.733Z,5.89
2023-02-07T22:14:07.524Z,5.84
2023-02-07T22:16:10.087Z,5.71
2023-02-07T22:18:11.689Z,5.51
2023-02-07T22:20:16.032Z,5.30
2023-02-07T22:22:17.580Z,5.23
2023-02-07T22:24:19.622Z,5.08
2023-02-07T22:26:22.026Z,5.10
2023-02-07T22:28:23.554Z,5.26
2023-02-07T22:30:25.181Z,5.11
2023-02-07T22:32:26.780Z,5.19
2023-02-07T22:34:28.336Z,5.18
2023-02-07T22:36:33.651Z,5.34
2023-02-07T22:38:35.240Z,5.48
2023-02-07T22:40:38.154Z,5.60
2023-02-07T22:42:39.871Z,5.59
2023-02-07T22:44:41.446Z,5.70
2023-02-07T22:46:43.521Z,5.74
2023-02-07T22:48:45.350Z,5.76
2023-02-07T22:50:47.024Z,5.84
2023-02-07T22:52:49.955Z,5.87
2023-02-07T22:54:51.502Z,5.93
2023-02-07T22:56:53.122Z,5.99
2023-02-07T22:58:55.439Z,6.01
2023-02-07T23:00:56.989Z,5.93
2023-02-07T23:02:59.705Z,5.99
2023-02-07T23:05:01.271Z,5.96
2023-02-07T23:07:02.867Z,5.69
2023-02-07T23:09:05.856Z,5.72
2023-02-07T23:11:08.163Z,5.80
2023-02-07T23:13:10.214Z,5.75
2023-02-07T23:15:11.926Z,5.77
2023-02-07T23:17:13.743Z,5.72
2023-02-07T23:19:17.179Z,5.79
2023-02-07T23:21:21.991Z,5.78
2023-02-07T23:23:23.543Z,5.81
2023-02-07T23:25:26.423Z,5.77
2023-02-07T23:27:28.132Z,5.80
2023-02-07T23:29:29.689Z,5.66
2023-02-07T23:31:31.537Z,5.66
2023-02-07T23:33:40.906Z,5.44
2023-02-07T23:35:42.566Z,5.42
2023-02-07T23:37:44.125Z,5.45
2023-02-07T23:39:45.652Z,5.38
2023-02-07T23:41:48.791Z,5.34
2023-02-07T23:43:50.295Z,5.43
2023-02-07T23:45:52.115Z,5.46
2023-02-07T23:47:53.812Z,5.50
2023-02-07T23:49:55.305Z,5.58
2023-02-07T23:51:56.826Z,5.54
2023-02-07T23:53:58.565Z,5.56
2023-02-07T23:56:01.358Z,5.52
2023-02-07T23:58:04.342Z,5.55
